KUTS

Details ICAO KUTS
Name Huntsville Muni
Region United States
Timezone America/Chicago (UTC-6.0)
Plans Departing 3
Arriving 4
Stats Elevation 363 ft / 111 m (AMSL)
Location 30.746883° -95.587154°
Runways 1
Magnetic Variation 2.594° E
Sunrise 2017-12-11 13:11:26 UTC / 2017-12-11 07:11:26 Local
Sunset 2017-12-11 23:22:55 UTC / 2017-12-11 17:22:55 Local
Advertisement - Login to hide

Runways

ID Width Length Bearing (true) Bearing (mag) Surface Threshold Offset Overrun Length
18 98 ft / 30 m 5,023 ft / 1,531 m 185.76° 183.17° Asphalt 0 ft / 0 m 0 ft / 0 m
36 98 ft / 30 m 5,023 ft / 1,531 m 5.76° 3.17° Asphalt 0 ft / 0 m 0 ft / 0 m

Map

Weather


0- 5 10 15 20 25 30 35+ Temperature / ° C

Clouds and Precipitation
Forecast for 2017-12-11 12:00 UTC. Updated 38 minutes ago

Ground ~20,000 ft ~40,000 ft Winds

METAR

KUTS 110853Z AUTO 21006KT 10SM CLR 07/00 A3030 RMK AO2 SLP259 T00720000 56007

TAF

TAF KUTS 110520Z 1106/1206 23006KT P6SM SCT250

Frequencies

Recorded 119.42 MHz ASOS
Unicom 122.80 MHz CTAF/UNICOM
Warning: Do not use this data for real-world aviation or navigation. No guarantee of current accuracy is given.